sensor_id;sensor_type;location;lat;lon;timestamp;pressure;altitude;pressure_sealevel;temperature;humidity
47154;BME280;32907;41.412;2.164;2022-08-27T00:02:07;100127.97;;;29.55;44.58
47154;BME280;32907;41.412;2.164;2022-08-27T00:04:38;100192.19;;;29.90;44.53
47154;BME280;32907;41.412;2.164;2022-08-27T00:07:07;100204.97;;;29.98;45.13
47154;BME280;32907;41.412;2.164;2022-08-27T00:09:39;100206.56;;;29.99;45.27
47154;BME280;32907;41.412;2.164;2022-08-27T00:12:09;100169.91;;;29.79;45.34
47154;BME280;32907;41.412;2.164;2022-08-27T00:14:38;100190.59;;;29.89;45.24
47154;BME280;32907;41.412;2.164;2022-08-27T00:17:06;100132.72;;;29.54;45.61
47154;BME280;32907;41.412;2.164;2022-08-27T00:19:34;100165.78;;;29.70;45.84
47154;BME280;32907;41.412;2.164;2022-08-27T00:22:04;100197.66;;;29.87;45.81
47154;BME280;32907;41.412;2.164;2022-08-27T00:24:32;100211.69;;;29.97;46.04
47154;BME280;32907;41.412;2.164;2022-08-27T00:27:04;100206.94;;;29.98;46.03
47154;BME280;32907;41.412;2.164;2022-08-27T00:29:33;100194.97;;;29.90;46.15
47154;BME280;32907;41.412;2.164;2022-08-27T00:32:01;100202.59;;;29.97;46.30
47154;BME280;32907;41.412;2.164;2022-08-27T00:34:30;100179.72;;;29.77;46.56
47154;BME280;32907;41.412;2.164;2022-08-27T00:36:58;100172.94;;;29.74;46.64
47154;BME280;32907;41.412;2.164;2022-08-27T00:39:26;100208.91;;;29.97;46.69
47154;BME280;32907;41.412;2.164;2022-08-27T00:41:54;100183.06;;;29.86;46.66
47154;BME280;32907;41.412;2.164;2022-08-27T00:44:21;100195.88;;;29.98;46.17
47154;BME280;32907;41.412;2.164;2022-08-27T00:46:53;100150.84;;;29.74;46.49
47154;BME280;32907;41.412;2.164;2022-08-27T00:52:29;100185.56;;;29.95;46.12
47154;BME280;32907;41.412;2.164;2022-08-27T00:55:11;100195.47;;;29.96;46.25
47154;BME280;32907;41.412;2.164;2022-08-27T00:57:44;100172.38;;;29.85;45.85
47154;BME280;32907;41.412;2.164;2022-08-27T01:00:17;100176.84;;;29.93;45.93
47154;BME280;32907;41.412;2.164;2022-08-27T01:02:45;100154.91;;;29.80;45.71
47154;BME280;32907;41.412;2.164;2022-08-27T01:05:18;100168.56;;;29.93;45.91
47154;BME280;32907;41.412;2.164;2022-08-27T01:07:50;100160.28;;;29.93;46.03
47154;BME280;32907;41.412;2.164;2022-08-27T01:10:22;100131.63;;;29.81;45.84
47154;BME280;32907;41.412;2.164;2022-08-27T01:12:51;100153.13;;;29.92;45.70
47154;BME280;32907;41.412;2.164;2022-08-27T01:15:24;100151.19;;;29.92;45.98
47154;BME280;32907;41.412;2.164;2022-08-27T01:17:53;100077.22;;;29.43;45.68
47154;BME280;32907;41.412;2.164;2022-08-27T01:20:30;100137.72;;;29.91;45.72
47154;BME280;32907;41.412;2.164;2022-08-27T01:23:13;100100.47;;;29.62;45.87
47154;BME280;32907;41.412;2.164;2022-08-27T01:25:45;100150.34;;;29.92;45.96
47154;BME280;32907;41.412;2.164;2022-08-27T01:28:14;100105.78;;;29.70;46.29
47154;BME280;32907;41.412;2.164;2022-08-27T01:30:43;100098.28;;;29.71;46.48
47154;BME280;32907;41.412;2.164;2022-08-27T01:33:14;100126.66;;;29.91;45.99
47154;BME280;32907;41.412;2.164;2022-08-27T01:35:44;100089.19;;;29.70;46.04
47154;BME280;32907;41.412;2.164;2022-08-27T01:38:13;100093.13;;;29.69;45.99
47154;BME280;32907;41.412;2.164;2022-08-27T01:40:58;100118.72;;;29.89;46.01
47154;BME280;32907;41.412;2.164;2022-08-27T01:43:28;100121.06;;;29.87;46.30
47154;BME280;32907;41.412;2.164;2022-08-27T01:45:58;100085.88;;;29.61;46.80
47154;BME280;32907;41.412;2.164;2022-08-27T01:48:25;100082.22;;;29.57;46.98
47154;BME280;32907;41.412;2.164;2022-08-27T01:50:54;100055.56;;;29.45;47.07
47154;BME280;32907;41.412;2.164;2022-08-27T01:53:24;100111.97;;;29.87;47.02
47154;BME280;32907;41.412;2.164;2022-08-27T01:55:54;100003.72;;;29.16;47.23
47154;BME280;32907;41.412;2.164;2022-08-27T01:58:25;100094.06;;;29.77;47.86
47154;BME280;32907;41.412;2.164;2022-08-27T02:00:56;100091.34;;;29.80;47.97
47154;BME280;32907;41.412;2.164;2022-08-27T02:03:26;100079.69;;;29.68;47.88
47154;BME280;32907;41.412;2.164;2022-08-27T02:05:54;100084.97;;;29.76;48.13
47154;BME280;32907;41.412;2.164;2022-08-27T02:08:21;100082.78;;;29.66;48.21
47154;BME280;32907;41.412;2.164;2022-08-27T02:10:49;100089.31;;;29.77;48.31
47154;BME280;32907;41.412;2.164;2022-08-27T02:13:17;100074.16;;;29.68;48.52
47154;BME280;32907;41.412;2.164;2022-08-27T02:15:45;100102.09;;;29.86;48.84
47154;BME280;32907;41.412;2.164;2022-08-27T02:18:13;100097.38;;;29.86;49.13
47154;BME280;32907;41.412;2.164;2022-08-27T02:20:44;100054.69;;;29.61;49.08
47154;BME280;32907;41.412;2.164;2022-08-27T02:23:14;100080.22;;;29.77;49.23
47154;BME280;32907;41.412;2.164;2022-08-27T02:25:43;100089.69;;;29.76;49.47
47154;BME280;32907;41.412;2.164;2022-08-27T02:28:14;100079.44;;;29.76;49.86
47154;BME280;32907;41.412;2.164;2022-08-27T02:30:42;100096.56;;;29.86;49.76
47154;BME280;32907;41.412;2.164;2022-08-27T02:33:10;100054.19;;;29.55;50.43
47154;BME280;32907;41.412;2.164;2022-08-27T02:35:40;100091.63;;;29.75;50.34
47154;BME280;32907;41.412;2.164;2022-08-27T02:38:12;100094.59;;;29.86;49.95
47154;BME280;32907;41.412;2.164;2022-08-27T02:40:40;100038.53;;;29.43;49.57
47154;BME280;32907;41.412;2.164;2022-08-27T02:43:08;100089.44;;;29.85;49.51
47154;BME280;32907;41.412;2.164;2022-08-27T02:45:42;100093.00;;;29.85;49.85
47154;BME280;32907;41.412;2.164;2022-08-27T02:48:09;100087.28;;;29.74;49.89
47154;BME280;32907;41.412;2.164;2022-08-27T02:50:38;100096.94;;;29.84;49.62
47154;BME280;32907;41.412;2.164;2022-08-27T02:53:06;100059.72;;;29.55;49.75
47154;BME280;32907;41.412;2.164;2022-08-27T02:55:34;100094.97;;;29.85;49.84
47154;BME280;32907;41.412;2.164;2022-08-27T02:58:03;100084.50;;;29.74;49.55
47154;BME280;32907;41.412;2.164;2022-08-27T03:00:31;100014.63;;;29.28;49.87
47154;BME280;32907;41.412;2.164;2022-08-27T03:03:00;100046.91;;;29.47;49.46
47154;BME280;32907;41.412;2.164;2022-08-27T03:05:28;100095.94;;;29.73;49.36
47154;BME280;32907;41.412;2.164;2022-08-27T03:07:56;100091.22;;;29.73;49.42
47154;BME280;32907;41.412;2.164;2022-08-27T03:10:25;100071.88;;;29.73;49.57
47154;BME280;32907;41.412;2.164;2022-08-27T03:12:53;100019.91;;;29.37;49.24
47154;BME280;32907;41.412;2.164;2022-08-27T03:15:21;100061.81;;;29.62;49.36
47154;BME280;32907;41.412;2.164;2022-08-27T03:17:49;100012.78;;;29.36;49.28
47154;BME280;32907;41.412;2.164;2022-08-27T03:20:39;99998.03;;;29.28;49.49
47154;BME280;32907;41.412;2.164;2022-08-27T03:23:08;100077.91;;;29.79;49.05
47154;BME280;32907;41.412;2.164;2022-08-27T03:25:37;100056.75;;;29.67;48.79
47154;BME280;32907;41.412;2.164;2022-08-27T03:28:05;100062.28;;;29.67;48.66
47154;BME280;32907;41.412;2.164;2022-08-27T03:30:52;100054.81;;;29.68;48.79
47154;BME280;32907;41.412;2.164;2022-08-27T03:33:20;100079.06;;;29.78;49.12
47154;BME280;32907;41.412;2.164;2022-08-27T03:35:49;100069.97;;;29.77;48.73
47154;BME280;32907;41.412;2.164;2022-08-27T03:38:19;100065.63;;;29.76;48.69
47154;BME280;32907;41.412;2.164;2022-08-27T03:40:47;100036.44;;;29.56;49.18
47154;BME280;32907;41.412;2.164;2022-08-27T03:43:17;100056.16;;;29.77;48.76
47154;BME280;32907;41.412;2.164;2022-08-27T03:45:48;100058.13;;;29.77;48.71
47154;BME280;32907;41.412;2.164;2022-08-27T03:48:29;99969.00;;;29.15;48.75
47154;BME280;32907;41.412;2.164;2022-08-27T03:51:02;100047.41;;;29.75;48.60
47154;BME280;32907;41.412;2.164;2022-08-27T03:53:31;100036.19;;;29.65;49.21
47154;BME280;32907;41.412;2.164;2022-08-27T03:55:59;100032.22;;;29.62;48.74
47154;BME280;32907;41.412;2.164;2022-08-27T03:58:27;100053.78;;;29.76;48.93
47154;BME280;32907;41.412;2.164;2022-08-27T04:00:55;99962.44;;;29.23;48.74
47154;BME280;32907;41.412;2.164;2022-08-27T04:03:23;100033.38;;;29.61;48.58
47154;BME280;32907;41.412;2.164;2022-08-27T04:05:55;100034.41;;;29.53;48.69
47154;BME280;32907;41.412;2.164;2022-08-27T04:08:24;99964.28;;;29.15;48.50
47154;BME280;32907;41.412;2.164;2022-08-27T04:10:53;99994.97;;;29.33;48.35
47154;BME280;32907;41.412;2.164;2022-08-27T04:13:22;100056.88;;;29.74;48.29
47154;BME280;32907;41.412;2.164;2022-08-27T04:15:52;100062.41;;;29.74;48.84
47154;BME280;32907;41.412;2.164;2022-08-27T04:18:20;100056.06;;;29.74;48.40
47154;BME280;32907;41.412;2.164;2022-08-27T04:20:49;100036.13;;;29.61;48.90
47154;BME280;32907;41.412;2.164;2022-08-27T04:23:18;99979.06;;;29.26;48.84
47154;BME280;32907;41.412;2.164;2022-08-27T04:25:47;100047.75;;;29.70;48.95
47154;BME280;32907;41.412;2.164;2022-08-27T04:28:15;100055.66;;;29.72;48.89
47154;BME280;32907;41.412;2.164;2022-08-27T04:30:44;100054.84;;;29.71;48.86
47154;BME280;32907;41.412;2.164;2022-08-27T04:33:13;100053.69;;;29.72;48.98
47154;BME280;32907;41.412;2.164;2022-08-27T04:35:41;100054.47;;;29.73;48.97
47154;BME280;32907;41.412;2.164;2022-08-27T04:38:09;100053.69;;;29.72;48.98
47154;BME280;32907;41.412;2.164;2022-08-27T04:40:37;100053.69;;;29.72;48.94
47154;BME280;32907;41.412;2.164;2022-08-27T04:43:25;100057.25;;;29.73;48.76
47154;BME280;32907;41.412;2.164;2022-08-27T04:45:54;100058.84;;;29.74;48.90
47154;BME280;32907;41.412;2.164;2022-08-27T04:48:22;100046.03;;;29.62;48.61
47154;BME280;32907;41.412;2.164;2022-08-27T04:50:52;99925.50;;;28.89;48.81
47154;BME280;32907;41.412;2.164;2022-08-27T04:53:19;100048.03;;;29.65;48.77
47154;BME280;32907;41.412;2.164;2022-08-27T04:55:53;100060.44;;;29.75;48.70
47154;BME280;32907;41.412;2.164;2022-08-27T04:58:23;100065.16;;;29.74;48.85
47154;BME280;32907;41.412;2.164;2022-08-27T05:00:54;100062.78;;;29.73;48.52
47154;BME280;32907;41.412;2.164;2022-08-27T05:03:23;99984.09;;;29.21;48.47
47154;BME280;32907;41.412;2.164;2022-08-27T05:05:51;100061.97;;;29.72;48.57
47154;BME280;32907;41.412;2.164;2022-08-27T05:08:20;100037.53;;;29.51;48.78
47154;BME280;32907;41.412;2.164;2022-08-27T05:10:49;100074.19;;;29.71;48.49
47154;BME280;32907;41.412;2.164;2022-08-27T05:13:18;100067.09;;;29.70;48.38
47154;BME280;32907;41.412;2.164;2022-08-27T05:15:46;100006.31;;;29.28;48.75
47154;BME280;32907;41.412;2.164;2022-08-27T05:18:14;100043.06;;;29.51;48.51
47154;BME280;32907;41.412;2.164;2022-08-27T05:20:47;100068.63;;;29.68;48.57
47154;BME280;32907;41.412;2.164;2022-08-27T05:23:16;100073.31;;;29.67;48.89
47154;BME280;32907;41.412;2.164;2022-08-27T05:25:47;100044.50;;;29.45;48.84
47154;BME280;32907;41.412;2.164;2022-08-27T05:28:17;100070.94;;;29.66;48.73
47154;BME280;32907;41.412;2.164;2022-08-27T05:31:02;100052.50;;;29.50;49.23
47154;BME280;32907;41.412;2.164;2022-08-27T05:33:31;100051.56;;;29.43;49.06
47154;BME280;32907;41.412;2.164;2022-08-27T05:36:00;100006.47;;;29.16;48.90
47154;BME280;32907;41.412;2.164;2022-08-27T05:38:29;100074.44;;;29.63;49.31
47154;BME280;32907;41.412;2.164;2022-08-27T05:41:08;100079.19;;;29.62;49.38
47154;BME280;32907;41.412;2.164;2022-08-27T05:43:37;100081.94;;;29.62;49.04
47154;BME280;32907;41.412;2.164;2022-08-27T05:46:13;100019.53;;;29.19;49.30
47154;BME280;32907;41.412;2.164;2022-08-27T05:48:41;100082.31;;;29.61;49.63
47154;BME280;32907;41.412;2.164;2022-08-27T05:51:22;100081.50;;;29.60;49.44
47154;BME280;32907;41.412;2.164;2022-08-27T05:54:02;100067.28;;;29.39;49.76
47154;BME280;32907;41.412;2.164;2022-08-27T05:56:36;100095.34;;;29.60;49.53
47154;BME280;32907;41.412;2.164;2022-08-27T05:59:04;100093.72;;;29.59;49.61
47154;BME280;32907;41.412;2.164;2022-08-27T06:01:53;100070.03;;;29.39;49.35
47154;BME280;32907;41.412;2.164;2022-08-27T06:04:23;100098.09;;;29.60;49.71
47154;BME280;32907;41.412;2.164;2022-08-27T06:06:52;100032.13;;;29.16;49.47
47154;BME280;32907;41.412;2.164;2022-08-27T06:09:22;100089.34;;;29.58;49.25
47154;BME280;32907;41.412;2.164;2022-08-27T06:11:55;100073.53;;;29.36;49.79
47154;BME280;32907;41.412;2.164;2022-08-27T06:14:25;100065.25;;;29.36;49.53
47154;BME280;32907;41.412;2.164;2022-08-27T06:16:53;99995.47;;;28.96;48.82
47154;BME280;32907;41.412;2.164;2022-08-27T06:19:22;100101.53;;;29.53;49.54
47154;BME280;32907;41.412;2.164;2022-08-27T06:21:50;100094.41;;;29.52;49.76
47154;BME280;32907;41.412;2.164;2022-08-27T06:24:28;100093.22;;;29.53;49.61
47154;BME280;32907;41.412;2.164;2022-08-27T06:26:55;100045.19;;;29.19;50.16
47154;BME280;32907;41.412;2.164;2022-08-27T06:29:24;100099.13;;;29.52;50.25
47154;BME280;32907;41.412;2.164;2022-08-27T06:31:52;99821.69;;;27.65;50.40
47154;BME280;32907;41.412;2.164;2022-08-27T06:34:22;100096.63;;;29.47;50.06
47154;BME280;32907;41.412;2.164;2022-08-27T06:36:50;100114.75;;;29.44;50.29
47154;BME280;32907;41.412;2.164;2022-08-27T06:39:20;100106.00;;;29.42;50.37
47154;BME280;32907;41.412;2.164;2022-08-27T06:41:48;99887.75;;;27.96;50.38
47154;BME280;32907;41.412;2.164;2022-08-27T06:44:20;100111.09;;;29.40;50.42
47154;BME280;32907;41.412;2.164;2022-08-27T06:46:50;100051.31;;;29.09;50.22
47154;BME280;32907;41.412;2.164;2022-08-27T06:49:18;100100.84;;;29.41;50.37
47154;BME280;32907;41.412;2.164;2022-08-27T06:51:46;100110.28;;;29.40;50.19
47154;BME280;32907;41.412;2.164;2022-08-27T06:54:15;100095.03;;;29.26;49.72
47154;BME280;32907;41.412;2.164;2022-08-27T06:56:44;100097.09;;;29.30;49.72
47154;BME280;32907;41.412;2.164;2022-08-27T06:59:14;100117.78;;;29.39;49.91
47154;BME280;32907;41.412;2.164;2022-08-27T07:01:45;100119.38;;;29.40;50.06
47154;BME280;32907;41.412;2.164;2022-08-27T07:04:19;100030.94;;;28.79;49.71
47154;BME280;32907;41.412;2.164;2022-08-27T07:06:48;99916.44;;;28.11;49.60
47154;BME280;32907;41.412;2.164;2022-08-27T07:09:17;100104.50;;;29.25;49.65
47154;BME280;32907;41.412;2.164;2022-08-27T07:11:46;100112.91;;;29.33;49.57
47154;BME280;32907;41.412;2.164;2022-08-27T07:14:14;100119.31;;;29.37;49.75
47154;BME280;32907;41.412;2.164;2022-08-27T07:16:42;100100.66;;;29.30;49.78
47154;BME280;32907;41.412;2.164;2022-08-27T07:19:14;100082.25;;;29.18;49.90
47154;BME280;32907;41.412;2.164;2022-08-27T07:21:43;100117.72;;;29.36;50.12
47154;BME280;32907;41.412;2.164;2022-08-27T07:24:10;100076.16;;;29.09;50.02
47154;BME280;32907;41.412;2.164;2022-08-27T07:26:40;100074.13;;;29.06;50.31
47154;BME280;32907;41.412;2.164;2022-08-27T07:29:12;100092.66;;;29.25;50.22
47154;BME280;32907;41.412;2.164;2022-08-27T07:31:41;100121.06;;;29.45;50.33
47154;BME280;32907;41.412;2.164;2022-08-27T07:34:10;100123.44;;;29.46;50.65
47154;BME280;32907;41.412;2.164;2022-08-27T07:36:38;100012.38;;;28.76;51.54
47154;BME280;32907;41.412;2.164;2022-08-27T07:39:07;100138.50;;;29.49;51.00
47154;BME280;32907;41.412;2.164;2022-08-27T07:41:35;100122.81;;;29.53;50.61
47154;BME280;32907;41.412;2.164;2022-08-27T07:44:24;100126.00;;;29.55;50.68
47154;BME280;32907;41.412;2.164;2022-08-27T07:46:57;100128.03;;;29.58;50.80
47154;BME280;32907;41.412;2.164;2022-08-27T07:49:27;100137.06;;;29.55;50.86
47154;BME280;32907;41.412;2.164;2022-08-27T07:51:55;100138.66;;;29.56;50.79
47154;BME280;32907;41.412;2.164;2022-08-27T07:54:23;100137.91;;;29.40;52.29
47154;BME280;32907;41.412;2.164;2022-08-27T07:56:52;100149.72;;;29.56;51.98
47154;BME280;32907;41.412;2.164;2022-08-27T07:59:23;100151.53;;;29.68;51.97
47154;BME280;32907;41.412;2.164;2022-08-27T08:01:53;100112.41;;;29.46;50.97
47154;BME280;32907;41.412;2.164;2022-08-27T08:04:23;100148.81;;;29.71;50.83
47154;BME280;32907;41.412;2.164;2022-08-27T08:06:54;100155.88;;;29.69;50.80
47154;BME280;32907;41.412;2.164;2022-08-27T08:09:23;100156.22;;;29.67;50.86
47154;BME280;32907;41.412;2.164;2022-08-27T08:11:53;100109.00;;;29.34;51.24
47154;BME280;32907;41.412;2.164;2022-08-27T08:14:21;100089.31;;;29.16;51.60
47154;BME280;32907;41.412;2.164;2022-08-27T08:16:49;100148.13;;;29.55;51.30
47154;BME280;32907;41.412;2.164;2022-08-27T08:19:17;100140.81;;;29.47;51.52
47154;BME280;32907;41.412;2.164;2022-08-27T08:21:44;100124.25;;;29.47;51.30
47154;BME280;32907;41.412;2.164;2022-08-27T08:24:12;100084.31;;;29.21;50.98
47154;BME280;32907;41.412;2.164;2022-08-27T08:26:40;100119.97;;;29.49;50.98
47154;BME280;32907;41.412;2.164;2022-08-27T08:29:09;100157.84;;;29.68;50.88
47154;BME280;32907;41.412;2.164;2022-08-27T08:31:45;100163.50;;;29.75;51.00
47154;BME280;32907;41.412;2.164;2022-08-27T08:34:17;100172.09;;;29.70;51.71
47154;BME280;32907;41.412;2.164;2022-08-27T08:36:46;100157.25;;;29.59;51.66
47154;BME280;32907;41.412;2.164;2022-08-27T08:39:22;100169.69;;;29.69;51.55
47154;BME280;32907;41.412;2.164;2022-08-27T08:41:53;100166.19;;;29.72;51.16
47154;BME280;32907;41.412;2.164;2022-08-27T08:44:40;100094.97;;;29.23;52.03
47154;BME280;32907;41.412;2.164;2022-08-27T08:49:50;100175.16;;;29.65;52.37
47154;BME280;32907;41.412;2.164;2022-08-27T09:00:41;100172.38;;;29.65;52.37
47154;BME280;32907;41.412;2.164;2022-08-27T09:03:12;100123.38;;;29.43;51.61
47154;BME280;32907;41.412;2.164;2022-08-27T09:05:56;100168.31;;;29.78;52.01
47154;BME280;32907;41.412;2.164;2022-08-27T09:08:34;100165.13;;;29.76;51.98
47154;BME280;32907;41.412;2.164;2022-08-27T09:11:27;100165.16;;;29.80;51.53
47154;BME280;32907;41.412;2.164;2022-08-27T09:17:01;100182.63;;;29.84;51.44
47154;BME280;32907;41.412;2.164;2022-08-27T09:19:37;100177.31;;;29.75;51.47
47154;BME280;32907;41.412;2.164;2022-08-27T09:27:30;100135.47;;;29.54;51.07
47154;BME280;32907;41.412;2.164;2022-08-27T09:30:07;100178.94;;;29.76;51.74
47154;BME280;32907;41.412;2.164;2022-08-27T09:32:36;100179.41;;;29.82;51.77
47154;BME280;32907;41.412;2.164;2022-08-27T09:35:07;100181.69;;;29.76;52.05
47154;BME280;32907;41.412;2.164;2022-08-27T09:37:42;100170.22;;;29.55;51.67
47154;BME280;32907;41.412;2.164;2022-08-27T09:40:21;100188.44;;;29.60;52.81
47154;BME280;32907;41.412;2.164;2022-08-27T09:42:55;100197.69;;;29.67;52.67
47154;BME280;32907;41.412;2.164;2022-08-27T09:45:25;100184.19;;;29.62;52.30
47154;BME280;32907;41.412;2.164;2022-08-27T09:48:13;100170.00;;;29.64;52.74
47154;BME280;32907;41.412;2.164;2022-08-27T09:50:49;100118.59;;;29.40;52.50
47154;BME280;32907;41.412;2.164;2022-08-27T09:55:57;100181.00;;;29.83;52.19
47154;BME280;32907;41.412;2.164;2022-08-27T09:58:29;100144.75;;;29.65;52.44
47154;BME280;32907;41.412;2.164;2022-08-27T10:03:27;100189.81;;;29.89;52.54
47154;BME280;32907;41.412;2.164;2022-08-27T10:05:59;100067.28;;;29.19;52.17
47154;BME280;32907;41.412;2.164;2022-08-27T10:08:55;100164.38;;;29.79;52.80
47154;BME280;32907;41.412;2.164;2022-08-27T10:11:29;100131.69;;;29.62;52.40
47154;BME280;32907;41.412;2.164;2022-08-27T10:14:03;100186.75;;;29.94;52.66
47154;BME280;32907;41.412;2.164;2022-08-27T10:25:08;100171.69;;;29.91;52.61
47154;BME280;32907;41.412;2.164;2022-08-27T10:30:18;100151.34;;;29.80;52.83
47154;BME280;32907;41.412;2.164;2022-08-27T10:35:35;100183.78;;;30.06;52.67
47154;BME280;32907;41.412;2.164;2022-08-27T10:38:32;100133.97;;;29.79;52.93
47154;BME280;32907;41.412;2.164;2022-08-27T10:41:16;100166.13;;;30.11;53.13
47154;BME280;32907;41.412;2.164;2022-08-27T10:49:38;100176.16;;;30.19;52.74
47154;BME280;32907;41.412;2.164;2022-08-27T10:52:51;100165.09;;;30.19;52.62
47154;BME280;32907;41.412;2.164;2022-08-27T10:55:22;100152.84;;;30.20;52.76
47154;BME280;32907;41.412;2.164;2022-08-27T10:58:09;100133.19;;;30.02;51.92
47154;BME280;32907;41.412;2.164;2022-08-27T11:06:04;100109.34;;;29.94;52.44
47154;BME280;32907;41.412;2.164;2022-08-27T11:08:41;100128.03;;;30.00;51.58
47154;BME280;32907;41.412;2.164;2022-08-27T11:11:14;100151.09;;;30.08;51.87
47154;BME280;32907;41.412;2.164;2022-08-27T11:14:13;100075.41;;;29.51;52.08
47154;BME280;32907;41.412;2.164;2022-08-27T11:16:46;100148.75;;;29.91;51.80
47154;BME280;32907;41.412;2.164;2022-08-27T11:19:24;100152.81;;;29.97;52.36
47154;BME280;32907;41.412;2.164;2022-08-27T11:22:06;100146.31;;;29.86;52.62
47154;BME280;32907;41.412;2.164;2022-08-27T11:27:23;100085.75;;;29.54;53.07
47154;BME280;32907;41.412;2.164;2022-08-27T11:30:00;100081.31;;;29.49;53.06
47154;BME280;32907;41.412;2.164;2022-08-27T11:33:08;100139.25;;;29.88;53.03
47154;BME280;32907;41.412;2.164;2022-08-27T11:44:25;100152.69;;;29.90;52.83
47154;BME280;32907;41.412;2.164;2022-08-27T11:47:09;100146.44;;;29.93;52.86
47154;BME280;32907;41.412;2.164;2022-08-27T11:49:49;100148.41;;;29.92;53.05
47154;BME280;32907;41.412;2.164;2022-08-27T11:54:56;100105.69;;;29.67;53.09
47154;BME280;32907;41.412;2.164;2022-08-27T11:57:31;100139.31;;;29.92;53.25
47154;BME280;32907;41.412;2.164;2022-08-27T12:00:15;100146.50;;;29.96;53.00
47154;BME280;32907;41.412;2.164;2022-08-27T12:02:43;100132.75;;;30.00;52.86
47154;BME280;32907;41.412;2.164;2022-08-27T12:07:51;100122.97;;;30.06;52.76
47154;BME280;32907;41.412;2.164;2022-08-27T12:10:30;100075.13;;;29.79;52.50
47154;BME280;32907;41.412;2.164;2022-08-27T12:18:40;100125.59;;;30.18;52.44
47154;BME280;32907;41.412;2.164;2022-08-27T12:21:21;100111.38;;;30.20;52.25
47154;BME280;32907;41.412;2.164;2022-08-27T12:24:12;100114.97;;;30.24;52.20
47154;BME280;32907;41.412;2.164;2022-08-27T12:26:54;100131.22;;;30.25;52.42
47154;BME280;32907;41.412;2.164;2022-08-27T12:32:26;100148.53;;;30.22;52.25
47154;BME280;32907;41.412;2.164;2022-08-27T12:40:55;100130.69;;;30.16;53.98
47154;BME280;32907;41.412;2.164;2022-08-27T12:43:29;100040.13;;;29.64;54.17
47154;BME280;32907;41.412;2.164;2022-08-27T12:46:13;100102.44;;;30.07;54.52
47154;BME280;32907;41.412;2.164;2022-08-27T12:48:43;100105.72;;;30.13;54.34
47154;BME280;32907;41.412;2.164;2022-08-27T12:51:34;100037.84;;;29.69;54.86
47154;BME280;32907;41.412;2.164;2022-08-27T13:05:03;100057.63;;;29.71;54.24
47154;BME280;32907;41.412;2.164;2022-08-27T13:07:44;100062.41;;;29.74;55.17
47154;BME280;32907;41.412;2.164;2022-08-27T13:10:16;100117.31;;;29.99;55.24
47154;BME280;32907;41.412;2.164;2022-08-27T13:12:47;100134.13;;;30.10;55.32
47154;BME280;32907;41.412;2.164;2022-08-27T13:15:15;100146.53;;;30.19;55.24
47154;BME280;32907;41.412;2.164;2022-08-27T13:17:45;100126.69;;;30.14;57.28
47154;BME280;32907;41.412;2.164;2022-08-27T13:20:24;100066.88;;;29.83;56.59
47154;BME280;32907;41.412;2.164;2022-08-27T13:22:53;100126.75;;;30.17;56.42
47154;BME280;32907;41.412;2.164;2022-08-27T13:25:27;100107.97;;;30.07;55.63
47154;BME280;32907;41.412;2.164;2022-08-27T13:28:03;100009.66;;;29.37;55.54
47154;BME280;32907;41.412;2.164;2022-08-27T13:30:36;100101.59;;;30.03;54.79
47154;BME280;32907;41.412;2.164;2022-08-27T13:33:08;100070.34;;;29.76;55.01
47154;BME280;32907;41.412;2.164;2022-08-27T13:35:37;100080.16;;;29.73;55.19
47154;BME280;32907;41.412;2.164;2022-08-27T13:38:09;100059.84;;;29.62;54.90
47154;BME280;32907;41.412;2.164;2022-08-27T13:40:57;100099.00;;;29.91;54.30
47154;BME280;32907;41.412;2.164;2022-08-27T13:43:36;100121.16;;;30.14;53.28
47154;BME280;32907;41.412;2.164;2022-08-27T13:46:09;100106.94;;;30.15;53.20
47154;BME280;32907;41.412;2.164;2022-08-27T13:48:40;100075.97;;;30.06;51.89
47154;BME280;32907;41.412;2.164;2022-08-27T13:51:11;100048.69;;;30.04;51.65
47154;BME280;32907;41.412;2.164;2022-08-27T13:53:47;100063.88;;;30.14;49.65
47154;BME280;32907;41.412;2.164;2022-08-27T13:56:37;100056.75;;;30.13;48.84
47154;BME280;32907;41.412;2.164;2022-08-27T13:59:13;100063.88;;;30.14;48.56
47154;BME280;32907;41.412;2.164;2022-08-27T14:07:34;100051.88;;;30.06;49.22
47154;BME280;32907;41.412;2.164;2022-08-27T14:12:33;100035.50;;;30.17;48.84
47154;BME280;32907;41.412;2.164;2022-08-27T14:15:27;100049.09;;;30.29;48.24
47154;BME280;32907;41.412;2.164;2022-08-27T14:17:57;100015.41;;;29.97;48.29
47154;BME280;32907;41.412;2.164;2022-08-27T14:20:24;100002.59;;;29.86;48.29
47154;BME280;32907;41.412;2.164;2022-08-27T14:22:54;100081.56;;;30.32;48.21
47154;BME280;32907;41.412;2.164;2022-08-27T14:25:22;100076.81;;;30.33;48.18
47154;BME280;32907;41.412;2.164;2022-08-27T14:27:52;100088.31;;;30.35;48.47
47154;BME280;32907;41.412;2.164;2022-08-27T14:30:23;100090.31;;;30.38;48.21
47154;BME280;32907;41.412;2.164;2022-08-27T14:32:58;100076.09;;;30.40;48.04
47154;BME280;32907;41.412;2.164;2022-08-27T14:35:28;100087.16;;;30.40;47.76
47154;BME280;32907;41.412;2.164;2022-08-27T14:38:00;100085.66;;;30.42;48.00
47154;BME280;32907;41.412;2.164;2022-08-27T14:40:30;100063.78;;;30.33;48.15
47154;BME280;32907;41.412;2.164;2022-08-27T14:42:59;100056.56;;;30.25;47.72
47154;BME280;32907;41.412;2.164;2022-08-27T14:45:27;100033.41;;;30.11;47.86
47154;BME280;32907;41.412;2.164;2022-08-27T14:47:54;100022.59;;;30.02;47.28
47154;BME280;32907;41.412;2.164;2022-08-27T14:50:28;100095.91;;;30.42;47.28
47154;BME280;32907;41.412;2.164;2022-08-27T14:52:56;100109.41;;;30.47;47.91
47154;BME280;32907;41.412;2.164;2022-08-27T14:55:24;100118.56;;;30.51;47.39
47154;BME280;32907;41.412;2.164;2022-08-27T14:57:52;100111.84;;;30.48;47.30
47154;BME280;32907;41.412;2.164;2022-08-27T15:00:20;100096.13;;;30.29;47.09